sensor_id;sensor_type;location;lat;lon;timestamp;P1;durP1;ratioP1;P2;durP2;ratioP2
48367;SDS011;34173;47.446;18.912;2023-04-22T08:28:59;7.15;;;4.15;;
48367;SDS011;34173;47.446;18.912;2023-04-22T08:31:27;10.23;;;5.18;;
48367;SDS011;34173;47.446;18.912;2023-04-22T08:33:55;9.32;;;4.68;;
48367;SDS011;34173;47.446;18.912;2023-04-22T20:03:51;13.38;;;7.95;;
48367;SDS011;34173;47.446;18.912;2023-04-22T20:06:20;14.38;;;8.48;;
48367;SDS011;34173;47.446;18.912;2023-04-22T20:08:50;15.35;;;8.55;;
48367;SDS011;34173;47.446;18.912;2023-04-22T20:11:20;16.23;;;8.95;;
48367;SDS011;34173;47.446;18.912;2023-04-22T20:13:49;16.37;;;9.25;;
48367;SDS011;34173;47.446;18.912;2023-04-22T20:16:17;16.85;;;8.93;;
48367;SDS011;34173;47.446;18.912;2023-04-22T20:18:45;17.55;;;11.43;;
48367;SDS011;34173;47.446;18.912;2023-04-22T20:21:13;25.40;;;12.75;;
48367;SDS011;34173;47.446;18.912;2023-04-22T20:23:40;16.98;;;10.63;;
48367;SDS011;34173;47.446;18.912;2023-04-22T20:26:08;20.95;;;12.40;;
48367;SDS011;34173;47.446;18.912;2023-04-22T20:31:15;22.98;;;12.25;;
48367;SDS011;34173;47.446;18.912;2023-04-22T20:33:44;20.98;;;12.07;;
48367;SDS011;34173;47.446;18.912;2023-04-22T20:36:12;18.80;;;10.65;;
48367;SDS011;34173;47.446;18.912;2023-04-22T20:38:41;19.17;;;10.90;;
48367;SDS011;34173;47.446;18.912;2023-04-22T20:41:15;15.95;;;10.02;;
48367;SDS011;34173;47.446;18.912;2023-04-22T20:43:45;19.83;;;10.25;;
48367;SDS011;34173;47.446;18.912;2023-04-22T20:48:40;17.67;;;9.45;;
48367;SDS011;34173;47.446;18.912;2023-04-22T20:51:08;16.90;;;10.75;;
48367;SDS011;34173;47.446;18.912;2023-04-22T20:53:36;17.67;;;11.30;;
48367;SDS011;34173;47.446;18.912;2023-04-22T20:56:04;17.95;;;9.93;;
48367;SDS011;34173;47.446;18.912;2023-04-22T21:05:55;15.93;;;9.88;;
48367;SDS011;34173;47.446;18.912;2023-04-22T21:08:24;16.52;;;10.25;;
48367;SDS011;34173;47.446;18.912;2023-04-22T21:10:53;15.63;;;9.68;;
48367;SDS011;34173;47.446;18.912;2023-04-22T21:13:21;12.45;;;8.48;;
48367;SDS011;34173;47.446;18.912;2023-04-22T21:28:14;18.05;;;9.82;;
48367;SDS011;34173;47.446;18.912;2023-04-22T21:30:43;14.05;;;8.48;;
48367;SDS011;34173;47.446;18.912;2023-04-22T21:33:11;19.62;;;8.55;;
48367;SDS011;34173;47.446;18.912;2023-04-22T21:38:06;15.55;;;10.40;;
48367;SDS011;34173;47.446;18.912;2023-04-22T21:40:35;16.80;;;8.80;;
48367;SDS011;34173;47.446;18.912;2023-04-22T21:43:02;17.55;;;10.75;;
48367;SDS011;34173;47.446;18.912;2023-04-22T21:45:33;15.90;;;10.70;;
48367;SDS011;34173;47.446;18.912;2023-04-22T21:48:01;17.83;;;10.93;;
48367;SDS011;34173;47.446;18.912;2023-04-22T21:50:30;16.85;;;11.23;;
48367;SDS011;34173;47.446;18.912;2023-04-22T21:52:58;20.33;;;11.15;;
48367;SDS011;34173;47.446;18.912;2023-04-22T21:55:26;15.77;;;10.40;;
48367;SDS011;34173;47.446;18.912;2023-04-22T21:57:55;14.57;;;9.98;;
48367;SDS011;34173;47.446;18.912;2023-04-22T22:00:22;14.68;;;9.80;;
48367;SDS011;34173;47.446;18.912;2023-04-22T22:02:51;15.30;;;9.80;;
48367;SDS011;34173;47.446;18.912;2023-04-22T22:05:19;18.60;;;11.05;;
48367;SDS011;34173;47.446;18.912;2023-04-22T22:07:47;17.62;;;10.88;;
48367;SDS011;34173;47.446;18.912;2023-04-22T22:10:16;15.93;;;10.43;;
48367;SDS011;34173;47.446;18.912;2023-04-22T22:12:49;14.87;;;10.10;;
48367;SDS011;34173;47.446;18.912;2023-04-22T22:15:17;16.17;;;9.95;;
48367;SDS011;34173;47.446;18.912;2023-04-22T22:17:45;15.77;;;10.25;;
48367;SDS011;34173;47.446;18.912;2023-04-22T22:20:14;16.15;;;10.57;;
48367;SDS011;34173;47.446;18.912;2023-04-22T22:22:48;16.55;;;10.05;;
48367;SDS011;34173;47.446;18.912;2023-04-22T22:25:15;15.90;;;10.87;;
48367;SDS011;34173;47.446;18.912;2023-04-22T22:27:43;13.55;;;10.18;;
48367;SDS011;34173;47.446;18.912;2023-04-22T22:30:16;14.25;;;10.10;;
48367;SDS011;34173;47.446;18.912;2023-04-22T22:32:44;15.80;;;10.40;;
48367;SDS011;34173;47.446;18.912;2023-04-22T22:35:13;15.73;;;10.50;;
48367;SDS011;34173;47.446;18.912;2023-04-22T22:37:40;13.55;;;9.88;;
48367;SDS011;34173;47.446;18.912;2023-04-22T22:40:09;15.68;;;9.75;;
48367;SDS011;34173;47.446;18.912;2023-04-22T22:42:37;14.85;;;10.48;;
48367;SDS011;34173;47.446;18.912;2023-04-22T22:45:05;16.98;;;10.95;;
48367;SDS011;34173;47.446;18.912;2023-04-22T22:47:33;16.08;;;11.05;;
48367;SDS011;34173;47.446;18.912;2023-04-22T22:50:01;18.08;;;11.57;;
48367;SDS011;34173;47.446;18.912;2023-04-22T22:52:29;18.42;;;12.40;;
48367;SDS011;34173;47.446;18.912;2023-04-22T22:54:58;14.63;;;10.93;;
48367;SDS011;34173;47.446;18.912;2023-04-22T22:57:25;15.60;;;11.30;;
48367;SDS011;34173;47.446;18.912;2023-04-22T22:59:53;18.05;;;12.00;;
48367;SDS011;34173;47.446;18.912;2023-04-22T23:02:20;19.67;;;12.07;;
48367;SDS011;34173;47.446;18.912;2023-04-22T23:04:48;16.02;;;11.45;;
48367;SDS011;34173;47.446;18.912;2023-04-22T23:07:15;16.60;;;11.80;;
48367;SDS011;34173;47.446;18.912;2023-04-22T23:09:43;17.37;;;12.45;;
48367;SDS011;34173;47.446;18.912;2023-04-22T23:12:11;17.10;;;11.48;;
48367;SDS011;34173;47.446;18.912;2023-04-22T23:14:38;19.25;;;11.93;;
48367;SDS011;34173;47.446;18.912;2023-04-22T23:17:06;16.00;;;11.07;;
48367;SDS011;34173;47.446;18.912;2023-04-22T23:19:34;17.50;;;12.27;;
48367;SDS011;34173;47.446;18.912;2023-04-22T23:22:02;17.45;;;12.40;;
48367;SDS011;34173;47.446;18.912;2023-04-22T23:24:32;17.27;;;10.90;;
48367;SDS011;34173;47.446;18.912;2023-04-22T23:27:00;15.80;;;10.60;;
48367;SDS011;34173;47.446;18.912;2023-04-22T23:29:28;17.07;;;10.90;;
48367;SDS011;34173;47.446;18.912;2023-04-22T23:31:57;15.52;;;10.82;;
48367;SDS011;34173;47.446;18.912;2023-04-22T23:34:26;15.32;;;10.68;;
48367;SDS011;34173;47.446;18.912;2023-04-22T23:36:57;20.35;;;10.98;;
48367;SDS011;34173;47.446;18.912;2023-04-22T23:39:25;17.67;;;11.18;;
48367;SDS011;34173;47.446;18.912;2023-04-22T23:41:52;16.80;;;11.27;;
48367;SDS011;34173;47.446;18.912;2023-04-22T23:44:20;17.40;;;11.45;;
48367;SDS011;34173;47.446;18.912;2023-04-22T23:46:48;18.42;;;10.40;;
48367;SDS011;34173;47.446;18.912;2023-04-22T23:49:15;16.40;;;10.95;;
48367;SDS011;34173;47.446;18.912;2023-04-22T23:51:43;18.45;;;11.52;;
48367;SDS011;34173;47.446;18.912;2023-04-22T23:54:10;16.33;;;11.15;;
48367;SDS011;34173;47.446;18.912;2023-04-22T23:56:38;15.98;;;10.75;;
48367;SDS011;34173;47.446;18.912;2023-04-22T23:59:07;13.57;;;10.00;;
